Time;durP1;ratioP1;P1;durP2;ratioP2;P2;SDS_P1;SDS_P2;PMS_P1;PMS_P2;Temp;Humidity;BMP_temperature;BMP_pressure;BME280_temperature;BME280_humidity;BME280_pressure;Samples;Min_cycle;Max_cycle;Signal;HPM_P1;HPM_P2
2022/05/14 00:01:44;;;;;;;4.27;3.90;;;;;;;;;;5034199;28;20208;-59
2022/05/14 00:04:10;;;;;;;5.10;3.43;;;;;;;;;;5049513;28;20259;-58
2022/05/14 00:06:54;;;;;;;5.23;3.50;;;;;;;;;;5036008;28;20184;-59
2022/05/14 00:09:21;;;;;;;4.70;3.70;;;;;;;;;;5053411;28;20502;-59
2022/05/14 00:14:33;;;;;;;4.07;3.47;;;;;;;;;;5057476;28;20198;-59
2022/05/14 00:16:59;;;;;;;4.83;3.53;;;;;;;;;;5032013;28;20553;-59
2022/05/14 00:19:25;;;;;;;4.00;3.23;;;;;;;;;;5027977;28;20353;-58
2022/05/14 00:21:51;;;;;;;4.37;3.83;;;;;;;;;;5038503;28;20280;-58
2022/05/14 00:24:17;;;;;;;4.03;3.63;;;;;;;;;;5064583;28;20196;-58
2022/05/14 00:26:43;;;;;;;4.07;3.67;;;;;;;;;;5057388;28;20185;-58
2022/05/14 00:29:10;;;;;;;4.73;3.50;;;;;;;;;;5031415;28;20647;-58
2022/05/14 00:31:36;;;;;;;3.33;3.00;;;;;;;;;;5032132;28;20204;-59
2022/05/14 00:34:03;;;;;;;4.20;3.80;;;;;;;;;;5030033;28;20180;-59
2022/05/14 00:36:29;;;;;;;4.63;3.53;;;;;;;;;;5055428;28;20207;-59
2022/05/14 00:38:55;;;;;;;4.23;3.47;;;;;;;;;;5031306;28;20643;-58
2022/05/14 00:41:24;;;;;;;4.63;3.47;;;;;;;;;;5034680;28;20741;-59
2022/05/14 00:43:54;;;;;;;4.97;3.83;;;;;;;;;;5031354;28;20185;-58
2022/05/14 00:46:22;;;;;;;4.33;3.77;;;;;;;;;;5053620;28;20207;-58
2022/05/14 00:48:50;;;;;;;4.87;4.37;;;;;;;;;;5048848;28;20782;-58
2022/05/14 00:51:19;;;;;;;3.70;3.37;;;;;;;;;;5062608;28;20597;-58
2022/05/14 00:53:48;;;;;;;3.57;3.10;;;;;;;;;;5064279;28;21021;-61
2022/05/14 00:56:16;;;;;;;3.40;3.20;;;;;;;;;;5038622;28;20547;-60
2022/05/14 00:58:45;;;;;;;4.97;3.43;;;;;;;;;;5028472;28;20204;-58
2022/05/14 01:01:11;;;;;;;4.27;3.53;;;;;;;;;;5054160;28;20204;-60
2022/05/14 01:03:40;;;;;;;3.60;3.30;;;;;;;;;;5034934;28;20252;-59
2022/05/14 01:06:08;;;;;;;3.87;3.40;;;;;;;;;;5045737;28;21169;-59
2022/05/14 01:08:35;;;;;;;3.70;3.40;;;;;;;;;;5050397;28;20173;-59
2022/05/14 01:11:01;;;;;;;3.53;3.23;;;;;;;;;;5047775;28;20177;-58
2022/05/14 01:13:28;;;;;;;2.53;2.03;;;;;;;;;;5039111;28;20556;-60
2022/05/14 01:15:56;;;;;;;3.73;2.40;;;;;;;;;;5051378;28;20558;-59
2022/05/14 01:18:23;;;;;;;4.27;2.50;;;;;;;;;;5056512;28;20181;-59
2022/05/14 01:21:01;;;;;;;2.57;2.13;;;;;;;;;;5049703;28;20213;-58
2022/05/14 01:26:36;;;;;;;3.43;2.20;;;;;;;;;;5048824;28;20255;-59
2022/05/14 01:29:02;;;;;;;3.50;2.53;;;;;;;;;;5024368;28;20180;-59
2022/05/14 01:31:28;;;;;;;5.30;2.43;;;;;;;;;;5038136;28;20185;-59
2022/05/14 01:34:05;;;;;;;4.20;2.23;;;;;;;;;;5046464;28;20231;-59
2022/05/14 01:36:32;;;;;;;2.40;1.90;;;;;;;;;;5053254;28;20184;-59
2022/05/14 01:38:58;;;;;;;3.70;2.43;;;;;;;;;;5056364;28;20188;-59
2022/05/14 01:41:24;;;;;;;3.00;1.93;;;;;;;;;;5053362;28;20241;-59
2022/05/14 01:43:51;;;;;;;3.73;2.30;;;;;;;;;;5056637;28;20188;-59
2022/05/14 01:46:17;;;;;;;3.37;2.63;;;;;;;;;;5050445;28;20191;-58
2022/05/14 01:48:44;;;;;;;3.33;2.30;;;;;;;;;;5051018;28;20210;-59
2022/05/14 01:51:10;;;;;;;3.00;2.70;;;;;;;;;;5041439;28;20183;-58
2022/05/14 01:53:36;;;;;;;2.47;2.00;;;;;;;;;;5058918;28;20189;-58
2022/05/14 01:56:03;;;;;;;4.63;2.43;;;;;;;;;;5058490;28;20191;-59
2022/05/14 01:58:38;;;;;;;4.53;2.03;;;;;;;;;;5056439;28;20230;-59
2022/05/14 02:01:08;;;;;;;3.70;2.30;;;;;;;;;;5050264;28;20208;-59
2022/05/14 02:03:35;;;;;;;3.80;1.90;;;;;;;;;;5050231;28;20177;-59
2022/05/14 02:06:01;;;;;;;3.53;2.40;;;;;;;;;;5031406;28;20173;-58
2022/05/14 02:08:27;;;;;;;2.77;2.20;;;;;;;;;;5056806;28;20191;-58
2022/05/14 02:10:57;;;;;;;6.53;2.53;;;;;;;;;;5050771;28;20246;-59
2022/05/14 02:13:24;;;;;;;3.50;2.00;;;;;;;;;;5032081;28;20747;-58
2022/05/14 02:15:51;;;;;;;2.60;2.20;;;;;;;;;;5037779;28;20184;-59
2022/05/14 02:18:19;;;;;;;2.30;1.97;;;;;;;;;;5058369;28;20189;-59
2022/05/14 02:20:45;;;;;;;3.47;2.17;;;;;;;;;;5046629;28;20204;-59
2022/05/14 02:23:14;;;;;;;2.33;2.07;;;;;;;;;;5053801;28;20222;-59
2022/05/14 02:25:42;;;;;;;4.70;3.10;;;;;;;;;;5034066;28;20240;-59
2022/05/14 02:28:08;;;;;;;2.43;2.13;;;;;;;;;;5034042;28;20556;-59
2022/05/14 02:30:34;;;;;;;3.67;2.20;;;;;;;;;;5028404;28;20186;-59
2022/05/14 02:33:00;;;;;;;3.63;2.30;;;;;;;;;;5030152;28;20485;-59
2022/05/14 02:35:27;;;;;;;2.83;2.20;;;;;;;;;;5027861;28;20213;-59
2022/05/14 02:37:53;;;;;;;2.23;1.97;;;;;;;;;;5037952;28;20184;-58
2022/05/14 02:40:21;;;;;;;2.67;2.20;;;;;;;;;;5032405;28;20205;-59
2022/05/14 02:42:47;;;;;;;2.20;2.00;;;;;;;;;;5038639;28;20213;-59
2022/05/14 02:45:13;;;;;;;3.17;1.90;;;;;;;;;;5031443;28;20193;-58
2022/05/14 02:47:40;;;;;;;2.67;1.93;;;;;;;;;;5025695;28;20200;-58
2022/05/14 02:50:07;;;;;;;4.80;4.10;;;;;;;;;;5036287;28;20185;-58
2022/05/14 02:52:33;;;;;;;3.13;1.87;;;;;;;;;;5030685;28;20197;-58
2022/05/14 02:54:59;;;;;;;2.87;2.13;;;;;;;;;;5039588;28;20177;-58
2022/05/14 02:57:25;;;;;;;2.13;1.93;;;;;;;;;;5031308;28;20558;-58
2022/05/14 02:59:51;;;;;;;2.50;2.10;;;;;;;;;;5029111;28;20205;-58
2022/05/14 03:02:17;;;;;;;2.67;2.10;;;;;;;;;;5030414;28;20193;-58
2022/05/14 03:04:44;;;;;;;2.53;2.00;;;;;;;;;;5030872;28;20299;-58
2022/05/14 03:07:11;;;;;;;4.03;2.40;;;;;;;;;;5035803;28;20181;-58
2022/05/14 03:09:38;;;;;;;5.03;2.80;;;;;;;;;;5029943;28;20186;-58
2022/05/14 03:12:05;;;;;;;3.43;2.30;;;;;;;;;;5028222;28;20272;-57
2022/05/14 03:14:31;;;;;;;3.60;2.40;;;;;;;;;;5026896;28;20185;-58
2022/05/14 03:16:57;;;;;;;3.53;2.17;;;;;;;;;;5038724;28;20240;-58
2022/05/14 03:19:24;;;;;;;3.60;2.27;;;;;;;;;;5030911;28;20537;-58
2022/05/14 03:21:51;;;;;;;2.30;1.90;;;;;;;;;;5036787;28;20189;-58
2022/05/14 03:24:17;;;;;;;3.00;2.10;;;;;;;;;;5037669;28;20181;-58
2022/05/14 03:26:44;;;;;;;3.43;2.23;;;;;;;;;;5041820;28;20222;-58
2022/05/14 03:29:10;;;;;;;3.57;2.50;;;;;;;;;;5042692;28;20185;-58
2022/05/14 03:31:37;;;;;;;6.13;2.70;;;;;;;;;;5041744;28;20790;-57
2022/05/14 03:34:04;;;;;;;2.33;2.10;;;;;;;;;;5024249;28;20181;-57
2022/05/14 03:36:30;;;;;;;3.90;2.00;;;;;;;;;;5019554;28;20220;-58
2022/05/14 03:38:57;;;;;;;2.33;2.03;;;;;;;;;;5032690;28;20185;-58
2022/05/14 03:41:23;;;;;;;3.97;2.50;;;;;;;;;;5033341;28;20537;-57
2022/05/14 03:43:49;;;;;;;2.73;2.23;;;;;;;;;;5040208;28;20196;-57
2022/05/14 03:46:15;;;;;;;4.83;2.50;;;;;;;;;;5043319;28;20539;-57
2022/05/14 03:48:42;;;;;;;2.93;2.13;;;;;;;;;;5018499;28;20257;-57
2022/05/14 03:51:08;;;;;;;3.70;2.20;;;;;;;;;;5034701;28;20658;-57
2022/05/14 03:53:34;;;;;;;2.90;2.47;;;;;;;;;;5011248;28;20244;-57
2022/05/14 03:56:00;;;;;;;4.83;2.50;;;;;;;;;;5036753;28;20293;-57
2022/05/14 03:58:26;;;;;;;3.70;2.30;;;;;;;;;;5012033;28;20235;-57
2022/05/14 04:00:55;;;;;;;2.10;1.90;;;;;;;;;;5035820;28;20204;-58
2022/05/14 04:03:21;;;;;;;3.47;2.30;;;;;;;;;;5040285;28;20269;-57
2022/05/14 04:05:48;;;;;;;3.57;2.70;;;;;;;;;;5031837;28;20479;-58
2022/05/14 04:08:14;;;;;;;3.73;2.10;;;;;;;;;;5023920;28;20187;-56
2022/05/14 04:10:40;;;;;;;5.53;2.33;;;;;;;;;;5026444;28;20582;-57
2022/05/14 04:13:07;;;;;;;2.13;1.93;;;;;;;;;;5027353;28;20429;-57
2022/05/14 04:15:33;;;;;;;2.27;2.07;;;;;;;;;;5042754;28;20200;-58
2022/05/14 04:17:59;;;;;;;3.07;2.30;;;;;;;;;;5046144;28;20289;-58
2022/05/14 04:20:25;;;;;;;3.90;2.53;;;;;;;;;;5024022;28;20215;-57
2022/05/14 04:22:52;;;;;;;4.23;2.10;;;;;;;;;;5026963;28;20173;-56
2022/05/14 04:25:18;;;;;;;3.37;2.20;;;;;;;;;;5009039;28;20306;-57
2022/05/14 04:27:46;;;;;;;4.37;2.20;;;;;;;;;;5010032;28;20722;-57
2022/05/14 04:30:13;;;;;;;3.73;2.37;;;;;;;;;;5027327;28;20645;-58
2022/05/14 04:32:40;;;;;;;4.33;2.43;;;;;;;;;;5027809;28;20541;-58
2022/05/14 04:35:06;;;;;;;3.13;1.90;;;;;;;;;;5017877;28;20516;-58
2022/05/14 04:37:34;;;;;;;2.60;2.27;;;;;;;;;;5030981;28;20254;-58
2022/05/14 04:40:01;;;;;;;5.33;2.33;;;;;;;;;;5013244;28;20202;-58
2022/05/14 04:42:27;;;;;;;4.00;2.03;;;;;;;;;;5012873;28;20586;-60
2022/05/14 04:44:53;;;;;;;3.10;2.37;;;;;;;;;;5026014;28;20604;-58
2022/05/14 04:47:19;;;;;;;2.97;1.93;;;;;;;;;;5045043;28;20575;-58
2022/05/14 04:49:48;;;;;;;4.60;2.33;;;;;;;;;;5031510;28;20265;-59
2022/05/14 04:52:14;;;;;;;3.23;2.10;;;;;;;;;;5011559;28;20265;-58
2022/05/14 04:54:40;;;;;;;2.53;1.90;;;;;;;;;;5027087;28;20181;-57
2022/05/14 04:57:07;;;;;;;6.73;2.03;;;;;;;;;;5029594;28;20707;-58
2022/05/14 04:59:34;;;;;;;3.13;2.10;;;;;;;;;;5020412;28;20181;-58
2022/05/14 05:04:46;;;;;;;3.60;2.00;;;;;;;;;;5032399;28;20244;-58
2022/05/14 05:07:12;;;;;;;2.50;1.90;;;;;;;;;;5010229;28;20645;-57
2022/05/14 05:09:38;;;;;;;2.10;1.90;;;;;;;;;;5041918;28;20234;-58
2022/05/14 05:12:05;;;;;;;3.00;2.00;;;;;;;;;;5024250;28;20217;-58
2022/05/14 05:14:32;;;;;;;3.87;2.07;;;;;;;;;;5035566;28;20185;-58
2022/05/14 05:16:58;;;;;;;7.13;2.40;;;;;;;;;;5019009;28;20254;-58
2022/05/14 05:19:25;;;;;;;5.20;2.17;;;;;;;;;;5028343;28;20185;-59
2022/05/14 05:21:51;;;;;;;2.73;2.00;;;;;;;;;;5022127;28;20182;-59
2022/05/14 05:24:17;;;;;;;2.83;2.00;;;;;;;;;;5026385;28;20570;-58
2022/05/14 05:26:43;;;;;;;1.80;1.70;;;;;;;;;;5010285;28;20233;-59
2022/05/14 05:29:09;;;;;;;4.93;2.20;;;;;;;;;;5026189;28;20199;-59
2022/05/14 05:31:39;;;;;;;3.57;2.03;;;;;;;;;;5036222;28;20281;-58
2022/05/14 05:34:05;;;;;;;2.73;1.97;;;;;;;;;;5029009;28;20184;-58
2022/05/14 05:36:31;;;;;;;3.70;1.90;;;;;;;;;;5009136;28;20328;-59
2022/05/14 05:38:58;;;;;;;2.30;2.10;;;;;;;;;;5021899;28;20537;-58
2022/05/14 05:41:24;;;;;;;3.27;2.23;;;;;;;;;;5034839;28;20778;-59
2022/05/14 05:43:50;;;;;;;2.63;1.83;;;;;;;;;;5031850;28;20239;-58
2022/05/14 05:46:16;;;;;;;2.10;1.90;;;;;;;;;;5025937;28;20197;-58
2022/05/14 05:48:43;;;;;;;3.83;2.00;;;;;;;;;;5033897;28;20501;-58
2022/05/14 05:51:10;;;;;;;2.67;2.30;;;;;;;;;;5039654;28;20587;-58
2022/05/14 05:59:07;;;;;;;3.23;1.83;;;;;;;;;;5034868;28;20200;-58
2022/05/14 06:01:33;;;;;;;4.13;2.20;;;;;;;;;;5019611;28;20609;-58
2022/05/14 06:03:59;;;;;;;3.67;2.50;;;;;;;;;;5020128;28;20334;-59
2022/05/14 06:06:26;;;;;;;2.07;1.87;;;;;;;;;;5015822;28;20549;-59
2022/05/14 06:08:53;;;;;;;3.17;1.90;;;;;;;;;;5012742;28;20236;-59
2022/05/14 06:11:19;;;;;;;2.87;1.80;;;;;;;;;;5012307;28;20277;-58
2022/05/14 06:13:45;;;;;;;4.10;2.23;;;;;;;;;;5044591;28;20223;-58
2022/05/14 06:16:12;;;;;;;4.90;2.57;;;;;;;;;;5046498;28;20185;-58
2022/05/14 06:18:38;;;;;;;8.77;2.47;;;;;;;;;;5020144;28;20192;-58
2022/05/14 06:21:05;;;;;;;2.90;2.10;;;;;;;;;;5008556;28;20555;-58
2022/05/14 06:23:37;;;;;;;3.20;2.17;;;;;;;;;;5015265;28;20722;-58
2022/05/14 06:26:03;;;;;;;3.67;1.97;;;;;;;;;;5021307;28;20217;-57
2022/05/14 06:28:30;;;;;;;5.63;2.30;;;;;;;;;;5031958;28;20216;-60
2022/05/14 06:30:57;;;;;;;4.53;2.57;;;;;;;;;;5012213;28;20174;-60
2022/05/14 06:33:23;;;;;;;3.70;2.27;;;;;;;;;;5013519;28;20184;-60
2022/05/14 06:35:49;;;;;;;6.00;2.40;;;;;;;;;;5014861;28;20536;-60
2022/05/14 06:38:16;;;;;;;3.73;2.60;;;;;;;;;;5026666;28;20174;-60
2022/05/14 06:40:42;;;;;;;6.90;2.60;;;;;;;;;;5040792;28;20310;-61
2022/05/14 06:43:09;;;;;;;8.33;5.20;;;;;;;;;;5041390;28;20195;-61
2022/05/14 06:45:35;;;;;;;10.53;5.03;;;;;;;;;;5022148;28;20628;-61
2022/05/14 06:48:02;;;;;;;7.33;4.30;;;;;;;;;;5030002;28;20619;-60
2022/05/14 06:50:30;;;;;;;7.57;3.20;;;;;;;;;;5033137;28;20549;-61
2022/05/14 06:52:58;;;;;;;10.00;4.30;;;;;;;;;;5016744;28;20194;-62
2022/05/14 06:55:27;;;;;;;6.40;4.40;;;;;;;;;;5017238;28;20620;-62
2022/05/14 06:57:54;;;;;;;9.03;4.17;;;;;;;;;;5041625;28;20268;-61
2022/05/14 07:00:20;;;;;;;11.23;5.30;;;;;;;;;;5040144;28;20200;-61
2022/05/14 07:02:47;;;;;;;10.03;5.43;;;;;;;;;;5016659;28;20609;-60
2022/05/14 07:07:59;;;;;;;14.00;5.70;;;;;;;;;;5033129;28;20667;-61
2022/05/14 07:10:25;;;;;;;12.80;8.00;;;;;;;;;;5013104;28;20192;-61
2022/05/14 07:12:51;;;;;;;12.97;6.60;;;;;;;;;;5013427;28;20263;-61
2022/05/14 07:15:18;;;;;;;13.13;6.20;;;;;;;;;;5011514;28;20189;-60
2022/05/14 07:17:44;;;;;;;9.90;5.30;;;;;;;;;;5013255;28;20203;-60
2022/05/14 07:20:11;;;;;;;11.23;5.60;;;;;;;;;;5029551;28;20185;-61
2022/05/14 07:22:37;;;;;;;13.00;5.00;;;;;;;;;;5012286;28;20235;-61
2022/05/14 07:25:04;;;;;;;8.97;5.27;;;;;;;;;;5035535;28;20214;-61
2022/05/14 07:27:30;;;;;;;10.53;5.00;;;;;;;;;;5029679;28;20186;-61
2022/05/14 07:29:56;;;;;;;8.90;4.90;;;;;;;;;;5029703;28;20289;-62
2022/05/14 07:32:23;;;;;;;10.37;5.23;;;;;;;;;;5012664;28;20201;-60
2022/05/14 07:34:49;;;;;;;12.03;5.70;;;;;;;;;;5022364;28;20189;-62
2022/05/14 07:37:23;;;;;;;11.33;5.33;;;;;;;;;;5018616;28;20268;-60
2022/05/14 07:39:52;;;;;;;15.17;5.87;;;;;;;;;;5032852;28;20302;-61
2022/05/14 07:42:25;;;;;;;12.40;6.33;;;;;;;;;;5033094;28;20202;-60
2022/05/14 07:44:57;;;;;;;14.93;8.80;;;;;;;;;;5014983;28;20208;-59
2022/05/14 07:47:24;;;;;;;12.60;7.73;;;;;;;;;;5020599;28;20190;-59
2022/05/14 07:49:50;;;;;;;12.63;8.57;;;;;;;;;;5043719;28;20182;-60
2022/05/14 07:52:17;;;;;;;9.90;6.83;;;;;;;;;;5020289;28;20522;-60
2022/05/14 07:54:43;;;;;;;11.17;6.77;;;;;;;;;;5029412;28;20498;-60
2022/05/14 07:57:10;;;;;;;10.70;6.20;;;;;;;;;;5028275;28;20166;-60
2022/05/14 07:59:36;;;;;;;11.80;5.80;;;;;;;;;;5031997;28;20177;-61
2022/05/14 08:02:05;;;;;;;8.27;5.23;;;;;;;;;;5026619;28;20170;-60
2022/05/14 08:04:32;;;;;;;13.47;6.13;;;;;;;;;;5025880;28;20215;-60
2022/05/14 08:06:58;;;;;;;11.37;5.63;;;;;;;;;;5028042;28;20200;-60
2022/05/14 08:09:24;;;;;;;12.37;6.90;;;;;;;;;;5029187;28;20623;-60
2022/05/14 08:11:52;;;;;;;10.33;5.50;;;;;;;;;;5010342;28;20644;-60
2022/05/14 08:14:19;;;;;;;11.97;5.53;;;;;;;;;;5020123;28;20631;-60
2022/05/14 08:16:45;;;;;;;8.00;4.80;;;;;;;;;;5017778;28;20229;-60
2022/05/14 08:19:11;;;;;;;8.30;4.60;;;;;;;;;;5027595;28;20190;-60
2022/05/14 08:24:34;;;;;;;10.07;4.50;;;;;;;;;;5015020;28;20320;-58
2022/05/14 08:27:05;;;;;;;13.63;5.27;;;;;;;;;;5019482;28;20177;-59
2022/05/14 08:29:32;;;;;;;12.03;4.90;;;;;;;;;;5015529;28;20181;-59
2022/05/14 08:31:58;;;;;;;37.87;8.20;;;;;;;;;;5016255;28;20269;-57
2022/05/14 08:34:24;;;;;;;22.73;7.53;;;;;;;;;;5033435;28;20308;-58
2022/05/14 08:36:51;;;;;;;16.87;4.90;;;;;;;;;;5011783;28;20234;-57
2022/05/14 08:39:17;;;;;;;471.90;60.27;;;;;;;;;;5011271;28;20680;-57
2022/05/14 08:41:45;;;;;;;108.13;15.20;;;;;;;;;;5021019;28;20248;-58
2022/05/14 08:44:13;;;;;;;96.37;13.73;;;;;;;;;;5036393;28;20675;-57
2022/05/14 08:46:40;;;;;;;33.67;7.37;;;;;;;;;;5035917;28;20231;-57
2022/05/14 08:49:13;;;;;;;13.67;5.23;;;;;;;;;;5027314;28;20420;-57
2022/05/14 08:51:43;;;;;;;17.08;6.72;;;;;;;;;;5031958;28;20465;-58
2022/05/14 08:54:10;;;;;;;10.57;5.53;;;;;;;;;;5017057;28;20189;-58
2022/05/14 08:56:46;;;;;;;11.00;4.23;;;;;;;;;;5021918;28;20177;-58
2022/05/14 08:59:25;;;;;;;11.80;5.00;;;;;;;;;;5012997;28;20186;-58
2022/05/14 09:01:59;;;;;;;10.77;4.50;;;;;;;;;;5036333;28;20530;-58
2022/05/14 09:04:25;;;;;;;9.97;4.87;;;;;;;;;;5024393;28;20630;-58
2022/05/14 09:06:52;;;;;;;11.13;4.50;;;;;;;;;;5040291;28;20180;-58
2022/05/14 09:09:19;;;;;;;9.37;4.40;;;;;;;;;;5026808;28;20252;-58
2022/05/14 09:11:46;;;;;;;10.27;4.20;;;;;;;;;;5027088;28;20188;-58
2022/05/14 09:14:21;;;;;;;11.27;4.43;;;;;;;;;;5036006;28;20170;-57
2022/05/14 09:16:50;;;;;;;11.90;5.30;;;;;;;;;;5040255;28;20654;-58
2022/05/14 09:19:18;;;;;;;8.53;4.47;;;;;;;;;;5044800;28;20184;-58
2022/05/14 09:21:58;;;;;;;11.37;4.40;;;;;;;;;;5038615;28;20582;-58
2022/05/14 09:24:28;;;;;;;7.10;4.87;;;;;;;;;;5031699;28;20189;-58
2022/05/14 09:26:56;;;;;;;7.87;4.60;;;;;;;;;;5033444;28;20200;-58
2022/05/14 09:29:27;;;;;;;6.97;4.27;;;;;;;;;;5039235;28;20272;-58
2022/05/14 09:32:01;;;;;;;8.37;5.10;;;;;;;;;;5028893;28;20185;-57
2022/05/14 09:34:28;;;;;;;12.07;4.73;;;;;;;;;;5046141;28;20193;-58
2022/05/14 09:37:00;;;;;;;10.03;4.97;;;;;;;;;;5031253;28;20273;-57
2022/05/14 09:39:28;;;;;;;13.40;5.07;;;;;;;;;;5029804;28;20197;-58
2022/05/14 09:41:56;;;;;;;11.33;5.23;;;;;;;;;;5060978;28;20596;-57
2022/05/14 09:44:24;;;;;;;13.73;4.50;;;;;;;;;;5052002;28;20578;-58
2022/05/14 09:46:52;;;;;;;10.87;4.33;;;;;;;;;;5038510;28;20279;-58
2022/05/14 09:49:26;;;;;;;7.83;4.53;;;;;;;;;;5036587;28;20189;-59
2022/05/14 09:52:04;;;;;;;12.80;4.90;;;;;;;;;;5048434;28;20650;-58
2022/05/14 09:54:35;;;;;;;10.87;4.50;;;;;;;;;;5049009;28;20730;-58
2022/05/14 09:57:20;;;;;;;8.20;4.13;;;;;;;;;;5028440;28;20285;-57
2022/05/14 10:00:02;;;;;;;8.73;4.13;;;;;;;;;;5049815;28;20180;-59
2022/05/14 10:02:28;;;;;;;10.63;4.70;;;;;;;;;;5038887;28;20181;-57
2022/05/14 10:05:13;;;;;;;12.40;5.03;;;;;;;;;;5032371;28;20180;-57
2022/05/14 10:07:42;;;;;;;12.40;4.80;;;;;;;;;;5055038;28;20814;-58
2022/05/14 10:10:24;;;;;;;7.13;3.50;;;;;;;;;;5056814;28;20275;-58
2022/05/14 10:12:57;;;;;;;8.70;3.70;;;;;;;;;;5051147;28;20188;-57
2022/05/14 10:15:35;;;;;;;9.47;4.03;;;;;;;;;;5057981;28;20188;-57
2022/05/14 10:18:01;;;;;;;13.73;4.90;;;;;;;;;;5052918;28;20238;-58
2022/05/14 10:20:46;;;;;;;10.10;4.40;;;;;;;;;;5052480;28;20283;-58
2022/05/14 10:29:08;;;;;;;11.47;5.47;;;;;;;;;;5060890;28;20203;-58
2022/05/14 10:31:34;;;;;;;12.67;6.53;;;;;;;;;;5061254;28;20228;-59
2022/05/14 10:34:02;;;;;;;9.47;5.97;;;;;;;;;;5054292;28;20275;-59
2022/05/14 10:36:33;;;;;;;8.43;5.77;;;;;;;;;;5065146;28;20626;-58
2022/05/14 10:39:06;;;;;;;17.17;6.13;;;;;;;;;;5060438;28;20177;-59
2022/05/14 10:41:36;;;;;;;12.90;7.07;;;;;;;;;;5045126;28;20552;-60
2022/05/14 10:44:22;;;;;;;14.73;7.20;;;;;;;;;;5055827;28;20204;-58
2022/05/14 10:46:49;;;;;;;8.80;5.37;;;;;;;;;;5054085;28;20248;-58
2022/05/14 10:49:21;;;;;;;15.27;6.27;;;;;;;;;;5042138;28;20565;-58
2022/05/14 10:51:48;;;;;;;16.97;5.30;;;;;;;;;;5050920;28;20596;-58
2022/05/14 10:54:22;;;;;;;12.77;6.10;;;;;;;;;;5055068;28;20216;-58
2022/05/14 10:56:52;;;;;;;21.40;6.17;;;;;;;;;;5033001;28;20193;-58
2022/05/14 10:59:28;;;;;;;13.53;5.03;;;;;;;;;;5035710;28;20189;-58
2022/05/14 11:01:54;;;;;;;7.77;5.07;;;;;;;;;;5034304;28;20631;-58
2022/05/14 11:04:26;;;;;;;18.90;6.00;;;;;;;;;;5056630;28;20190;-57
2022/05/14 11:06:55;;;;;;;51.03;32.27;;;;;;;;;;5038156;28;20736;-60
2022/05/14 11:09:22;;;;;;;38.70;19.30;;;;;;;;;;5050026;28;20706;-59
2022/05/14 11:11:55;;;;;;;17.67;10.87;;;;;;;;;;5031331;28;20205;-60
2022/05/14 11:14:22;;;;;;;18.37;9.10;;;;;;;;;;5051727;28;20247;-59
2022/05/14 11:16:49;;;;;;;12.83;6.43;;;;;;;;;;5051435;28;20508;-63
2022/05/14 11:19:26;;;;;;;12.30;5.63;;;;;;;;;;5061594;28;20170;-59
2022/05/14 11:21:55;;;;;;;18.03;7.23;;;;;;;;;;5068384;28;20237;-59
2022/05/14 11:24:32;;;;;;;14.70;5.77;;;;;;;;;;5049010;28;20195;-59
2022/05/14 11:26:58;;;;;;;13.10;5.60;;;;;;;;;;5050437;28;20619;-61
2022/05/14 11:29:26;;;;;;;15.33;5.50;;;;;;;;;;5047080;28;20252;-59
2022/05/14 11:31:52;;;;;;;7.60;4.73;;;;;;;;;;5045048;28;20188;-59
2022/05/14 11:34:21;;;;;;;7.97;4.37;;;;;;;;;;5052260;28;20197;-59
2022/05/14 11:36:49;;;;;;;8.47;4.50;;;;;;;;;;5053793;28;20184;-58
2022/05/14 11:39:22;;;;;;;13.37;5.33;;;;;;;;;;5036252;28;20186;-58
2022/05/14 11:41:49;;;;;;;9.90;4.13;;;;;;;;;;5035555;28;20299;-57
2022/05/14 11:44:27;;;;;;;7.07;3.80;;;;;;;;;;5031359;28;20173;-58
2022/05/14 11:46:53;;;;;;;7.70;3.67;;;;;;;;;;5030269;28;20578;-58
2022/05/14 11:49:46;;;;;;;8.70;3.97;;;;;;;;;;5033976;28;20179;-57
2022/05/14 11:52:25;;;;;;;8.33;4.27;;;;;;;;;;5032459;28;20201;-59
2022/05/14 11:55:02;;;;;;;7.77;4.13;;;;;;;;;;5055590;28;20600;-58
2022/05/14 11:57:29;;;;;;;10.60;4.30;;;;;;;;;;5039312;28;20669;-59
2022/05/14 11:59:58;;;;;;;9.27;3.90;;;;;;;;;;5054076;28;20630;-58
2022/05/14 12:02:43;;;;;;;7.27;3.83;;;;;;;;;;5048553;28;20280;-58
2022/05/14 12:05:14;;;;;;;7.53;3.93;;;;;;;;;;5049286;28;20205;-59
2022/05/14 12:07:41;;;;;;;11.77;4.43;;;;;;;;;;5062588;28;20642;-58
2022/05/14 12:10:13;;;;;;;9.27;3.33;;;;;;;;;;5058854;28;20181;-57
2022/05/14 12:12:44;;;;;;;6.70;3.60;;;;;;;;;;5056339;28;20190;-59
2022/05/14 12:15:12;;;;;;;8.40;3.67;;;;;;;;;;5056947;28;20181;-60
2022/05/14 12:17:39;;;;;;;8.67;3.87;;;;;;;;;;5031601;28;20183;-57
2022/05/14 12:20:06;;;;;;;6.57;3.30;;;;;;;;;;5032652;28;20201;-58
2022/05/14 12:22:32;;;;;;;5.97;3.10;;;;;;;;;;5044069;28;20204;-56
2022/05/14 12:25:03;;;;;;;10.10;3.80;;;;;;;;;;5044265;28;20209;-58
2022/05/14 12:27:31;;;;;;;7.00;3.50;;;;;;;;;;5027790;28;20266;-57
2022/05/14 12:29:58;;;;;;;7.57;3.20;;;;;;;;;;5046848;28;20201;-58
2022/05/14 12:35:17;;;;;;;7.07;4.78;;;;;;;;;;5046653;28;20563;-58
2022/05/14 12:37:44;;;;;;;8.37;4.33;;;;;;;;;;5027818;28;20627;-59
2022/05/14 12:40:18;;;;;;;3.80;3.07;;;;;;;;;;5054237;28;20556;-59
2022/05/14 12:42:44;;;;;;;9.93;4.33;;;;;;;;;;5027467;28;20628;-59
2022/05/14 12:45:12;;;;;;;5.50;3.80;;;;;;;;;;5048779;28;20199;-59
2022/05/14 12:47:38;;;;;;;6.73;3.30;;;;;;;;;;5037872;28;20188;-59
2022/05/14 12:50:15;;;;;;;6.20;3.90;;;;;;;;;;5038160;28;20230;-59
2022/05/14 12:52:51;;;;;;;3.90;3.27;;;;;;;;;;5044890;28;20184;-59
2022/05/14 12:55:20;;;;;;;6.97;3.50;;;;;;;;;;5064201;28;20266;-59
2022/05/14 12:57:49;;;;;;;7.70;4.00;;;;;;;;;;5057611;28;20177;-60
2022/05/14 13:00:17;;;;;;;4.03;3.33;;;;;;;;;;5041133;28;20289;-60
2022/05/14 13:02:45;;;;;;;5.20;3.53;;;;;;;;;;5062475;28;20203;-60
2022/05/14 13:05:17;;;;;;;7.40;3.63;;;;;;;;;;5058854;28;20173;-60
2022/05/14 13:07:46;;;;;;;8.70;3.90;;;;;;;;;;5028220;28;20242;-60
2022/05/14 13:10:12;;;;;;;6.23;3.47;;;;;;;;;;5035559;28;20184;-60
2022/05/14 13:12:55;;;;;;;4.63;3.87;;;;;;;;;;5055388;28;20295;-60
2022/05/14 13:15:42;;;;;;;8.53;3.77;;;;;;;;;;5052903;28;20177;-60
2022/05/14 13:18:13;;;;;;;6.77;3.70;;;;;;;;;;5027546;28;20197;-60
2022/05/14 13:20:42;;;;;;;5.73;3.83;;;;;;;;;;5041466;28;20216;-60
2022/05/14 13:23:13;;;;;;;5.17;3.30;;;;;;;;;;5028474;28;20876;-60
2022/05/14 13:25:40;;;;;;;7.50;3.80;;;;;;;;;;5033389;28;20324;-60
2022/05/14 13:28:25;;;;;;;9.50;3.43;;;;;;;;;;5039596;28;20312;-60
2022/05/14 13:30:52;;;;;;;7.90;3.40;;;;;;;;;;5037650;28;20203;-60
2022/05/14 13:33:40;;;;;;;8.83;3.63;;;;;;;;;;5016867;28;20246;-60
2022/05/14 13:39:03;;;;;;;6.17;3.73;;;;;;;;;;5063642;28;20191;-60
2022/05/14 13:41:32;;;;;;;4.93;3.57;;;;;;;;;;5035770;28;20217;-61
2022/05/14 13:44:05;;;;;;;6.43;4.97;;;;;;;;;;5051489;28;20204;-60
2022/05/14 13:46:49;;;;;;;5.57;4.27;;;;;;;;;;5048510;28;20181;-60
2022/05/14 13:49:21;;;;;;;9.20;4.07;;;;;;;;;;5061607;28;20243;-60
2022/05/14 13:51:51;;;;;;;5.47;3.57;;;;;;;;;;5038330;28;20203;-60
2022/05/14 13:54:29;;;;;;;6.13;3.43;;;;;;;;;;5040941;28;20204;-61
2022/05/14 13:57:04;;;;;;;4.40;3.33;;;;;;;;;;5049089;28;20776;-60
2022/05/14 13:59:33;;;;;;;8.90;6.70;;;;;;;;;;5039383;28;20185;-60
2022/05/14 14:02:17;;;;;;;7.53;3.87;;;;;;;;;;5050492;28;20205;-60
2022/05/14 14:04:43;;;;;;;5.97;3.50;;;;;;;;;;5056834;28;20212;-60
2022/05/14 14:07:10;;;;;;;7.03;3.93;;;;;;;;;;5059587;28;20192;-60
2022/05/14 14:09:38;;;;;;;4.73;3.63;;;;;;;;;;5037007;28;20177;-59
2022/05/14 14:12:04;;;;;;;6.97;3.87;;;;;;;;;;5048035;28;20616;-59
2022/05/14 14:14:30;;;;;;;5.53;3.80;;;;;;;;;;5043006;28;20288;-60
2022/05/14 14:16:57;;;;;;;7.73;4.23;;;;;;;;;;5049381;28;20643;-60
2022/05/14 14:19:24;;;;;;;9.07;4.10;;;;;;;;;;5036775;28;20185;-60
2022/05/14 14:21:51;;;;;;;9.23;3.87;;;;;;;;;;5064293;28;20564;-60
2022/05/14 14:24:18;;;;;;;7.13;3.53;;;;;;;;;;5049997;28;20223;-60
2022/05/14 14:26:45;;;;;;;8.07;4.33;;;;;;;;;;5058602;28;20662;-61
2022/05/14 14:29:11;;;;;;;4.87;3.97;;;;;;;;;;5058994;28;20271;-60
2022/05/14 14:31:37;;;;;;;8.17;4.07;;;;;;;;;;5060622;28;20249;-60
2022/05/14 14:34:04;;;;;;;5.20;4.07;;;;;;;;;;5039974;28;20580;-60
2022/05/14 14:36:30;;;;;;;7.43;3.80;;;;;;;;;;5038735;28;20192;-60
2022/05/14 14:38:56;;;;;;;5.27;3.80;;;;;;;;;;5041005;28;20271;-59
2022/05/14 14:41:23;;;;;;;6.20;3.53;;;;;;;;;;5061494;28;20231;-60
2022/05/14 14:43:49;;;;;;;6.10;3.87;;;;;;;;;;5041193;28;20187;-58
2022/05/14 14:46:16;;;;;;;5.83;3.33;;;;;;;;;;5055263;28;20182;-59
2022/05/14 14:48:45;;;;;;;5.67;3.40;;;;;;;;;;5056485;28;20261;-59
2022/05/14 14:51:12;;;;;;;7.10;3.97;;;;;;;;;;5054059;28;20235;-60
2022/05/14 14:53:39;;;;;;;5.73;3.10;;;;;;;;;;5036867;28;20218;-60
2022/05/14 14:56:06;;;;;;;5.37;3.67;;;;;;;;;;5046858;28;20677;-60
2022/05/14 14:58:32;;;;;;;5.33;3.60;;;;;;;;;;5057030;28;20642;-59
2022/05/14 15:00:59;;;;;;;7.33;3.50;;;;;;;;;;5056680;28;20537;-59
2022/05/14 15:03:51;;;;;;;5.40;3.33;;;;;;;;;;5035341;28;20213;-59
2022/05/14 15:06:17;;;;;;;4.50;3.80;;;;;;;;;;5047571;28;20187;-59
2022/05/14 15:08:46;;;;;;;5.00;3.20;;;;;;;;;;5057924;28;21032;-59
2022/05/14 15:11:16;;;;;;;5.70;4.93;;;;;;;;;;5042814;28;20198;-59
2022/05/14 15:13:44;;;;;;;6.97;3.50;;;;;;;;;;5055329;28;20335;-59
2022/05/14 15:16:11;;;;;;;8.20;4.07;;;;;;;;;;5061815;28;20218;-59
2022/05/14 15:18:39;;;;;;;6.93;3.97;;;;;;;;;;5061629;28;20611;-59
2022/05/14 15:21:06;;;;;;;4.90;4.07;;;;;;;;;;5045814;28;20260;-58